createdAt,value
2018-05-11T00:02:02.705Z,16.00
2018-05-11T00:04:29.107Z,15.90
2018-05-11T00:06:55.510Z,16.00
2018-05-11T00:09:21.896Z,16.00
2018-05-11T00:11:48.304Z,15.90
2018-05-11T00:14:14.751Z,16.00
2018-05-11T00:16:41.169Z,16.10
2018-05-11T00:19:07.543Z,16.10
2018-05-11T00:21:33.918Z,16.00
2018-05-11T00:24:01.047Z,15.80
2018-05-11T00:26:27.438Z,15.80
2018-05-11T00:28:53.818Z,15.70
2018-05-11T00:31:20.190Z,15.70
2018-05-11T00:33:46.569Z,15.70
2018-05-11T00:36:12.978Z,15.60
2018-05-11T00:38:39.781Z,15.70
2018-05-11T00:41:06.718Z,15.80
2018-05-11T00:43:33.843Z,15.90
2018-05-11T00:46:00.249Z,15.90
2018-05-11T00:48:26.662Z,15.90
2018-05-11T00:50:53.059Z,15.80
2018-05-11T00:53:20.192Z,15.80
2018-05-11T00:55:49.570Z,15.80
2018-05-11T00:58:16.055Z,15.80
2018-05-11T01:00:42.507Z,15.90
2018-05-11T01:03:08.943Z,15.90
2018-05-11T01:05:35.412Z,15.90
2018-05-11T01:08:01.837Z,15.90
2018-05-11T01:10:28.230Z,15.90
2018-05-11T01:12:54.643Z,15.90
2018-05-11T01:15:21.809Z,15.90
2018-05-11T01:17:48.931Z,15.90
2018-05-11T01:20:15.358Z,15.80
2018-05-11T01:22:42.714Z,15.80
2018-05-11T01:25:09.131Z,15.70
2018-05-11T01:27:35.559Z,15.80
2018-05-11T01:30:01.985Z,15.90
2018-05-11T01:32:28.383Z,15.80
2018-05-11T01:34:54.790Z,15.90
2018-05-11T01:37:21.182Z,15.80
2018-05-11T01:39:47.590Z,15.80
2018-05-11T01:42:13.997Z,15.70
2018-05-11T01:44:41.126Z,15.80
2018-05-11T01:47:08.297Z,15.80
2018-05-11T01:49:35.475Z,15.80
2018-05-11T01:52:01.940Z,15.80
2018-05-11T01:54:28.375Z,15.80
2018-05-11T01:56:54.814Z,15.80
2018-05-11T01:59:22.690Z,15.80
2018-05-11T02:01:49.071Z,15.80
2018-05-11T02:04:15.501Z,15.80
2018-05-11T02:06:41.908Z,15.70
2018-05-11T02:09:09.030Z,15.70
2018-05-11T02:11:35.519Z,15.60
2018-05-11T02:14:01.906Z,15.60
2018-05-11T02:16:28.316Z,15.60
2018-05-11T02:18:54.688Z,15.50
2018-05-11T02:21:21.821Z,15.50
2018-05-11T02:23:48.276Z,15.50
2018-05-11T02:26:15.411Z,15.50
2018-05-11T02:28:42.574Z,15.50
2018-05-11T02:31:09.699Z,15.50
2018-05-11T02:33:36.090Z,15.50
2018-05-11T02:36:02.478Z,15.50
2018-05-11T02:38:29.620Z,15.60
2018-05-11T02:40:56.755Z,15.60
2018-05-11T02:43:23.135Z,15.60
2018-05-11T02:45:49.549Z,15.60
2018-05-11T02:48:16.684Z,15.60
2018-05-11T02:50:43.180Z,15.70
2018-05-11T02:53:09.485Z,15.70
2018-05-11T02:55:35.952Z,15.60
2018-05-11T02:58:02.453Z,15.70
2018-05-11T03:00:28.834Z,15.70
2018-05-11T03:02:55.244Z,15.70
2018-05-11T03:05:21.625Z,15.60
2018-05-11T03:07:48.763Z,15.50
2018-05-11T03:10:15.167Z,15.50
2018-05-11T03:12:41.557Z,15.50
2018-05-11T03:15:08.690Z,15.50
2018-05-11T03:17:35.843Z,15.60
2018-05-11T03:20:03.021Z,15.60
2018-05-11T03:22:29.418Z,15.60
2018-05-11T03:24:55.887Z,15.70
2018-05-11T03:27:22.279Z,15.70
2018-05-11T03:29:48.675Z,15.70
2018-05-11T03:32:15.046Z,15.70
2018-05-11T03:34:41.454Z,15.70
2018-05-11T03:37:07.839Z,15.70
2018-05-11T03:39:34.234Z,15.80
2018-05-11T03:42:00.620Z,15.80
2018-05-11T03:44:27.015Z,15.70
2018-05-11T03:46:54.195Z,15.60
2018-05-11T03:49:20.572Z,15.60
2018-05-11T03:51:47.039Z,15.60
2018-05-11T03:54:14.223Z,15.60
2018-05-11T03:56:40.642Z,15.60
2018-05-11T03:59:07.034Z,15.60
2018-05-11T04:01:46.535Z,15.70
2018-05-11T04:04:25.445Z,15.70
2018-05-11T04:07:03.972Z,15.80
2018-05-11T04:09:30.362Z,15.80
2018-05-11T04:11:57.490Z,15.90
2018-05-11T04:14:23.869Z,15.90
2018-05-11T04:16:50.269Z,15.90
2018-05-11T04:19:17.418Z,15.90
2018-05-11T04:21:44.608Z,16.00
2018-05-11T04:24:11.003Z,15.90
2018-05-11T04:26:37.432Z,15.90
2018-05-11T04:29:04.618Z,15.80
2018-05-11T04:31:30.993Z,15.80
2018-05-11T04:33:57.380Z,15.80
2018-05-11T04:36:23.810Z,15.80
2018-05-11T04:38:50.217Z,15.80
2018-05-11T04:41:17.344Z,15.70
2018-05-11T04:43:43.725Z,15.70
2018-05-11T04:46:10.122Z,15.70
2018-05-11T04:48:36.498Z,15.70
2018-05-11T04:51:02.904Z,15.70
2018-05-11T04:53:30.035Z,15.70
2018-05-11T04:55:57.201Z,15.70
2018-05-11T04:58:24.306Z,15.80
2018-05-11T05:00:50.698Z,15.70
2018-05-11T05:03:17.138Z,15.70
2018-05-11T05:05:43.503Z,15.80
2018-05-11T05:08:09.891Z,15.90
2018-05-11T05:10:36.267Z,16.00
2018-05-11T05:13:02.667Z,16.00
2018-05-11T05:15:29.076Z,16.00
2018-05-11T05:17:56.210Z,15.90
2018-05-11T05:20:22.577Z,15.80
2018-05-11T05:22:48.973Z,15.90
2018-05-11T05:25:16.183Z,15.90
2018-05-11T05:27:42.702Z,16.00
2018-05-11T05:30:09.080Z,16.00
2018-05-11T05:32:35.501Z,16.00
2018-05-11T05:35:04.775Z,16.00
2018-05-11T05:37:31.170Z,16.00
2018-05-11T05:39:58.296Z,16.00
2018-05-11T05:42:24.748Z,16.00
2018-05-11T05:44:51.883Z,16.00
2018-05-11T05:47:18.266Z,16.00
2018-05-11T05:49:44.671Z,16.00
2018-05-11T05:52:11.840Z,16.10
2018-05-11T05:54:38.256Z,16.00
2018-05-11T05:57:05.498Z,16.20
2018-05-11T05:59:31.904Z,16.20
2018-05-11T06:01:58.313Z,16.30
2018-05-11T06:04:24.732Z,16.40
2018-05-11T06:06:51.126Z,16.70
2018-05-11T06:09:18.275Z,17.10
2018-05-11T06:11:45.408Z,17.10
2018-05-11T06:14:11.807Z,17.10
2018-05-11T06:16:38.195Z,17.10
2018-05-11T06:19:05.335Z,17.10
2018-05-11T06:21:31.716Z,17.00
2018-05-11T06:23:58.099Z,17.00
2018-05-11T06:26:25.274Z,17.00
2018-05-11T06:28:51.656Z,17.00
2018-05-11T06:31:18.050Z,16.90
2018-05-11T06:33:44.608Z,17.00
2018-05-11T06:36:11.231Z,17.20
2018-05-11T06:38:37.630Z,17.20
2018-05-11T06:41:04.811Z,17.30
2018-05-11T06:43:31.207Z,17.30
2018-05-11T06:45:57.600Z,17.30
2018-05-11T06:48:23.983Z,17.40
2018-05-11T06:50:51.145Z,17.60
2018-05-11T06:53:18.263Z,17.50
2018-05-11T06:55:44.697Z,17.50
2018-05-11T06:58:11.870Z,17.60
2018-05-11T07:00:38.995Z,17.60
2018-05-11T07:03:05.432Z,17.50
2018-05-11T07:05:31.851Z,17.60
2018-05-11T07:07:59.041Z,17.50
2018-05-11T07:10:25.416Z,17.40
2018-05-11T07:12:52.666Z,17.40
2018-05-11T07:15:19.062Z,17.40
2018-05-11T07:17:45.451Z,17.30
2018-05-11T07:20:11.835Z,17.40
2018-05-11T07:22:38.268Z,17.20
2018-05-11T07:25:04.662Z,17.30
2018-05-11T07:27:31.782Z,17.40
2018-05-11T07:29:58.175Z,17.40
2018-05-11T07:32:24.570Z,17.40
2018-05-11T07:34:51.033Z,17.50
2018-05-11T07:37:18.183Z,17.60
2018-05-11T07:39:44.592Z,17.60
2018-05-11T07:42:11.714Z,17.80
2018-05-11T07:44:38.102Z,17.80
2018-05-11T07:47:04.526Z,17.90
2018-05-11T07:49:31.683Z,18.10
2018-05-11T07:51:58.065Z,18.10
2018-05-11T07:54:24.470Z,18.10
2018-05-11T07:56:50.859Z,18.20
2018-05-11T07:59:17.251Z,18.50
2018-05-11T08:01:43.635Z,18.60
2018-05-11T08:04:10.766Z,18.70
2018-05-11T08:06:37.916Z,18.70
2018-05-11T08:09:04.346Z,18.70
2018-05-11T08:11:30.754Z,18.70
2018-05-11T08:13:57.155Z,18.80
2018-05-11T08:16:23.544Z,18.90
2018-05-11T08:18:49.951Z,19.00
2018-05-11T08:21:16.368Z,19.10
2018-05-11T08:23:42.775Z,19.20
2018-05-11T08:26:09.189Z,19.20
2018-05-11T08:28:36.339Z,19.50
2018-05-11T08:31:03.582Z,19.50
2018-05-11T08:33:30.766Z,19.40
2018-05-11T08:35:57.989Z,19.40
2018-05-11T08:38:24.428Z,19.30
2018-05-11T08:40:51.601Z,19.30
2018-05-11T08:43:18.007Z,19.20
2018-05-11T08:45:45.160Z,19.20
2018-05-11T08:48:12.302Z,19.30
2018-05-11T08:50:39.434Z,19.00
2018-05-11T08:53:05.827Z,19.00
2018-05-11T08:55:32.231Z,19.20
2018-05-11T08:57:58.734Z,19.30
2018-05-11T09:00:25.118Z,19.40
2018-05-11T09:02:51.530Z,19.50
2018-05-11T09:05:18.664Z,19.80
2018-05-11T09:07:45.051Z,19.80
2018-05-11T09:10:11.474Z,20.00
2018-05-11T09:12:37.862Z,20.10
2018-05-11T09:15:04.294Z,20.20
2018-05-11T09:17:31.462Z,20.10
2018-05-11T09:19:57.895Z,20.10
2018-05-11T09:22:24.314Z,20.00
2018-05-11T09:24:52.215Z,19.90
2018-05-11T09:27:18.602Z,19.90
2018-05-11T09:29:44.988Z,19.90
2018-05-11T09:32:11.387Z,19.80
2018-05-11T09:34:38.525Z,20.00
2018-05-11T09:37:04.927Z,20.00
2018-05-11T09:39:31.536Z,20.10
2018-05-11T09:41:57.964Z,20.20
2018-05-11T09:44:24.359Z,20.30
2018-05-11T09:46:51.518Z,20.60
2018-05-11T09:49:17.991Z,20.60
2018-05-11T09:51:44.395Z,20.70
2018-05-11T09:54:11.560Z,21.10
2018-05-11T09:56:37.996Z,21.00
2018-05-11T09:59:04.397Z,20.90
2018-05-11T10:01:31.584Z,20.40
2018-05-11T10:03:57.998Z,20.40
2018-05-11T10:06:25.132Z,20.40
2018-05-11T10:08:51.557Z,20.40
2018-05-11T10:11:18.695Z,20.70
2018-05-11T10:13:45.131Z,20.70
2018-05-11T10:16:11.555Z,20.90
2018-05-11T10:18:37.947Z,21.00
2018-05-11T10:21:04.350Z,21.10
2018-05-11T10:23:31.496Z,21.40
2018-05-11T10:25:57.921Z,21.40
2018-05-11T10:28:24.367Z,21.60
2018-05-11T10:30:51.520Z,21.50
2018-05-11T10:33:18.672Z,21.30
2018-05-11T10:35:45.845Z,21.30
2018-05-11T10:38:12.242Z,21.30
2018-05-11T10:40:39.389Z,21.70
2018-05-11T10:43:06.559Z,21.80
2018-05-11T10:45:33.700Z,21.80
2018-05-11T10:48:00.875Z,21.80
2018-05-11T10:50:27.251Z,21.80
2018-05-11T10:52:53.661Z,22.00
2018-05-11T10:55:20.074Z,22.00
2018-05-11T10:57:46.471Z,22.10
2018-05-11T11:00:14.483Z,22.20
2018-05-11T11:02:40.872Z,22.20
2018-05-11T11:05:08.021Z,22.30
2018-05-11T11:07:34.447Z,22.20
2018-05-11T11:10:00.844Z,22.30
2018-05-11T11:12:27.230Z,22.40
2018-05-11T11:14:53.643Z,22.60
2018-05-11T11:17:20.061Z,22.90
2018-05-11T11:19:46.469Z,22.90
2018-05-11T11:22:12.860Z,22.90
2018-05-11T11:24:39.990Z,22.70
2018-05-11T11:27:06.378Z,22.70
2018-05-11T11:29:32.797Z,22.70
2018-05-11T11:31:59.203Z,22.80
2018-05-11T11:34:27.168Z,22.90
2018-05-11T11:36:54.235Z,22.90
2018-05-11T11:39:21.415Z,22.80
2018-05-11T11:41:47.893Z,22.80
2018-05-11T11:44:15.002Z,23.20
2018-05-11T11:46:41.420Z,23.20
2018-05-11T11:49:07.815Z,23.40
2018-05-11T11:51:34.952Z,23.10
2018-05-11T11:54:01.338Z,23.10
2018-05-11T11:56:27.756Z,22.70
2018-05-11T11:58:54.100Z,22.70
2018-05-11T12:01:20.499Z,22.70
2018-05-11T12:03:46.932Z,22.80
2018-05-11T12:06:16.179Z,23.00
2018-05-11T12:08:42.600Z,23.00
2018-05-11T12:11:10.670Z,23.30
2018-05-11T12:13:37.068Z,23.30
2018-05-11T12:16:04.926Z,23.60
2018-05-11T12:18:32.795Z,23.70
2018-05-11T12:20:59.196Z,23.70
2018-05-11T12:23:25.590Z,23.60
2018-05-11T12:25:52.841Z,23.50
2018-05-11T12:28:19.971Z,23.60
2018-05-11T12:30:46.380Z,23.50
2018-05-11T12:33:13.563Z,24.30
2018-05-11T12:35:40.685Z,24.40
2018-05-11T12:38:07.093Z,24.40
2018-05-11T12:40:33.498Z,24.50
2018-05-11T12:42:59.911Z,24.60
2018-05-11T12:45:27.049Z,24.50
2018-05-11T12:47:54.938Z,24.20
2018-05-11T12:50:22.089Z,24.00
2018-05-11T12:52:48.509Z,23.90
2018-05-11T12:55:14.940Z,23.70
2018-05-11T12:57:41.332Z,23.40
2018-05-11T13:00:07.746Z,23.40
2018-05-11T13:02:34.173Z,23.50
2018-05-11T13:05:00.573Z,23.40
2018-05-11T13:07:26.995Z,23.60
2018-05-11T13:09:53.393Z,23.60
2018-05-11T13:12:19.790Z,23.80
2018-05-11T13:14:47.006Z,24.30
2018-05-11T13:17:14.137Z,24.10
2018-05-11T13:19:40.542Z,24.10
2018-05-11T13:22:06.921Z,24.00
2018-05-11T13:24:33.327Z,23.70
2018-05-11T13:26:59.714Z,23.40
2018-05-11T13:29:26.855Z,23.20
2018-05-11T13:31:53.273Z,23.20
2018-05-11T13:34:19.660Z,23.10
2018-05-11T13:36:46.060Z,23.30
2018-05-11T13:39:13.202Z,23.40
2018-05-11T13:41:39.594Z,23.40
2018-05-11T13:44:06.000Z,23.40
2018-05-11T13:46:32.395Z,23.30
2018-05-11T13:48:58.803Z,23.30
2018-05-11T13:51:25.209Z,23.40
2018-05-11T13:53:51.695Z,23.40
2018-05-11T13:56:18.239Z,23.70
2018-05-11T13:58:44.576Z,23.80
2018-05-11T14:01:11.719Z,24.10
2018-05-11T14:03:38.981Z,24.00
2018-05-11T14:06:06.881Z,24.00
2018-05-11T14:08:33.376Z,24.00
2018-05-11T14:10:59.719Z,23.90
2018-05-11T14:13:26.127Z,23.70
2018-05-11T14:15:53.278Z,24.00
2018-05-11T14:18:20.442Z,24.20
2018-05-11T14:20:47.591Z,24.50
2018-05-11T14:23:14.734Z,24.70
2018-05-11T14:25:41.112Z,24.70
2018-05-11T14:28:07.558Z,24.70
2018-05-11T14:30:33.975Z,24.60
2018-05-11T14:33:00.388Z,24.60
2018-05-11T14:35:27.591Z,24.30
2018-05-11T14:37:53.994Z,24.30
2018-05-11T14:40:20.383Z,24.10
2018-05-11T14:42:46.824Z,24.10
2018-05-11T14:45:13.969Z,24.30
2018-05-11T14:47:41.115Z,24.50
2018-05-11T14:50:08.260Z,24.60
2018-05-11T14:52:34.733Z,24.50
2018-05-11T14:55:01.146Z,24.80
2018-05-11T14:57:28.274Z,25.00
2018-05-11T14:59:54.673Z,25.00
2018-05-11T15:02:21.798Z,24.90
2018-05-11T15:04:48.201Z,24.90
2018-05-11T15:07:15.329Z,24.70
2018-05-11T15:09:43.206Z,24.30
2018-05-11T15:12:09.603Z,24.30
2018-05-11T15:14:36.000Z,24.20
2018-05-11T15:17:03.211Z,24.20
2018-05-11T15:22:29.856Z,24.40
2018-05-11T15:24:56.243Z,24.40
2018-05-11T15:27:23.403Z,24.20
2018-05-11T15:29:49.815Z,24.10
2018-05-11T15:32:16.955Z,24.10
2018-05-11T15:34:43.362Z,24.00
2018-05-11T15:37:11.264Z,23.80
2018-05-11T15:39:38.517Z,23.70
2018-05-11T15:42:05.670Z,23.70
2018-05-11T15:44:32.803Z,23.60
2018-05-11T15:46:59.964Z,23.70
2018-05-11T15:49:27.106Z,23.90
2018-05-11T15:51:54.284Z,24.00
2018-05-11T15:54:20.674Z,24.00
2018-05-11T15:56:47.073Z,24.10
2018-05-11T15:59:13.499Z,24.10
2018-05-11T16:01:39.948Z,24.10
2018-05-11T16:04:06.369Z,24.10
2018-05-11T16:06:32.798Z,24.00
2018-05-11T16:08:59.224Z,24.10
2018-05-11T16:11:25.636Z,24.10
2018-05-11T16:13:52.788Z,24.10
2018-05-11T16:16:19.931Z,24.00
2018-05-11T16:18:46.390Z,24.00
2018-05-11T16:21:12.820Z,24.00
2018-05-11T16:23:39.209Z,24.00
2018-05-11T16:26:05.597Z,24.00
2018-05-11T16:28:32.006Z,24.00
2018-05-11T16:30:59.145Z,24.00
2018-05-11T16:33:25.528Z,24.00
2018-05-11T16:35:51.943Z,24.00
2018-05-11T16:38:19.088Z,24.10
2018-05-11T16:40:45.515Z,24.10
2018-05-11T16:43:11.905Z,24.10
2018-05-11T16:45:38.303Z,24.00
2018-05-11T16:48:04.722Z,24.00
2018-05-11T16:50:31.164Z,24.10
2018-05-11T16:52:57.587Z,24.00
2018-05-11T16:55:24.731Z,24.10
2018-05-11T16:57:51.132Z,24.10
2018-05-11T17:00:18.294Z,23.90
2018-05-11T17:02:52.275Z,23.80
2018-05-11T17:05:19.435Z,23.70
2018-05-11T17:07:47.319Z,23.60
2018-05-11T17:10:14.467Z,23.50
2018-05-11T17:12:40.879Z,23.50
2018-05-11T17:15:07.305Z,23.40
2018-05-11T17:17:33.706Z,23.50
2018-05-11T17:20:00.108Z,23.60
2018-05-11T17:22:27.343Z,23.60
2018-05-11T17:24:53.778Z,23.50
2018-05-11T17:27:20.187Z,23.40
2018-05-11T17:29:46.589Z,23.20
2018-05-11T17:32:12.990Z,23.20
2018-05-11T17:34:40.143Z,23.00
2018-05-11T17:37:07.304Z,23.00
2018-05-11T17:39:34.452Z,23.00
2018-05-11T17:42:02.507Z,23.00
2018-05-11T17:44:29.690Z,22.70
2018-05-11T17:46:56.088Z,22.70
2018-05-11T17:49:23.216Z,22.60
2018-05-11T17:51:49.658Z,22.60
2018-05-11T17:54:16.813Z,22.60
2018-05-11T17:56:43.211Z,22.60
2018-05-11T17:59:09.663Z,22.50
2018-05-11T18:01:36.058Z,22.40
2018-05-11T18:04:02.472Z,22.40
2018-05-11T18:06:29.641Z,22.30
2018-05-11T18:08:56.017Z,22.20
2018-05-11T18:11:22.417Z,22.20
2018-05-11T18:13:48.873Z,22.10
2018-05-11T18:16:15.272Z,22.00
2018-05-11T18:18:42.414Z,21.70
2018-05-11T18:21:08.794Z,21.70
2018-05-11T18:23:35.262Z,21.60
2018-05-11T18:26:02.446Z,21.40
2018-05-11T18:28:28.873Z,21.40
2018-05-11T18:30:55.276Z,21.30
2018-05-11T18:33:22.419Z,21.00
2018-05-11T18:35:48.826Z,20.90
2018-05-11T18:38:15.222Z,20.80
2018-05-11T18:40:41.625Z,20.60
2018-05-11T18:43:08.795Z,20.50
2018-05-11T18:45:35.205Z,20.50
2018-05-11T18:48:02.378Z,20.30
2018-05-11T18:50:28.792Z,20.30
2018-05-11T18:52:55.969Z,20.10
2018-05-11T18:55:23.084Z,20.00
2018-05-11T18:57:50.223Z,19.80
2018-05-11T19:00:16.635Z,19.80
2018-05-11T19:02:43.099Z,19.80
2018-05-11T19:05:10.287Z,19.70
2018-05-11T19:07:36.728Z,19.70
2018-05-11T19:10:03.185Z,19.60
2018-05-11T19:12:29.591Z,19.40
2018-05-11T19:14:56.016Z,19.30
2018-05-11T19:17:22.410Z,19.20
2018-05-11T19:19:48.816Z,19.20
2018-05-11T19:22:15.273Z,19.20
2018-05-11T19:24:42.394Z,19.10
2018-05-11T19:27:08.867Z,19.10
2018-05-11T19:29:36.021Z,18.90
2018-05-11T19:32:03.160Z,18.80
2018-05-11T19:34:29.578Z,18.80
2018-05-11T19:36:55.968Z,18.90
2018-05-11T19:39:22.679Z,18.80
2018-05-11T19:41:49.826Z,18.80
2018-05-11T19:44:16.220Z,18.80
2018-05-11T19:46:42.636Z,18.70
2018-05-11T19:49:09.074Z,18.60
2018-05-11T19:51:35.485Z,18.40
2018-05-11T19:54:01.911Z,18.30
2018-05-11T19:56:29.044Z,18.20
2018-05-11T19:58:56.182Z,18.10
2018-05-11T20:01:22.581Z,18.10
2018-05-11T20:03:49.017Z,18.10
2018-05-11T20:06:15.446Z,18.10
2018-05-11T20:08:42.705Z,18.00
2018-05-11T20:11:09.106Z,18.00
2018-05-11T20:13:35.514Z,18.00
2018-05-11T20:16:01.907Z,17.90
2018-05-11T20:18:28.354Z,17.90
2018-05-11T20:20:54.748Z,17.60
2018-05-11T20:23:21.139Z,17.50
2018-05-11T20:25:47.945Z,17.40
2018-05-11T20:28:14.395Z,17.30
2018-05-11T20:30:40.826Z,17.30
2018-05-11T20:33:07.239Z,17.20
2018-05-11T20:35:33.659Z,17.20
2018-05-11T20:38:00.076Z,17.10
2018-05-11T20:40:26.513Z,17.00
2018-05-11T20:42:52.930Z,17.00
2018-05-11T20:45:20.062Z,16.90
2018-05-11T20:47:47.835Z,16.90
2018-05-11T20:50:15.014Z,16.80
2018-05-11T20:52:41.420Z,16.80
2018-05-11T20:55:08.544Z,17.00
2018-05-11T20:57:34.952Z,17.00
2018-05-11T21:00:01.373Z,17.00
2018-05-11T21:02:27.785Z,16.90
2018-05-11T21:04:54.264Z,16.90
2018-05-11T21:07:21.385Z,16.80
2018-05-11T21:09:47.790Z,16.80
2018-05-11T21:12:14.267Z,16.70
2018-05-11T21:14:40.684Z,16.60
2018-05-11T21:17:07.088Z,16.50
2018-05-11T21:19:34.254Z,16.40
2018-05-11T21:22:00.630Z,16.40
2018-05-11T21:24:27.030Z,16.40
2018-05-11T21:26:53.424Z,16.50
2018-05-11T21:29:20.566Z,16.50
2018-05-11T21:31:47.028Z,16.50
2018-05-11T21:34:13.434Z,16.50
2018-05-11T21:36:39.815Z,16.60
2018-05-11T21:39:06.232Z,16.50
2018-05-11T21:41:32.615Z,16.30
2018-05-11T21:43:59.001Z,16.30
2018-05-11T21:46:25.397Z,16.30
2018-05-11T21:48:52.541Z,16.40
2018-05-11T21:51:18.966Z,16.30
2018-05-11T21:53:45.369Z,16.30
2018-05-11T21:56:11.756Z,16.20
2018-05-11T21:58:38.918Z,16.10
2018-05-11T22:01:05.351Z,16.10
2018-05-11T22:03:31.752Z,16.00
2018-05-11T22:05:58.165Z,16.00
2018-05-11T22:08:24.586Z,15.90
2018-05-11T22:10:50.998Z,15.90
2018-05-11T22:13:17.449Z,15.90
2018-05-11T22:15:43.854Z,15.80
2018-05-11T22:18:10.248Z,15.80
2018-05-11T22:20:36.632Z,15.70
2018-05-11T22:23:03.027Z,15.60
2018-05-11T22:25:30.189Z,15.40
2018-05-11T22:27:56.630Z,15.40
2018-05-11T22:30:23.768Z,15.50
2018-05-11T22:32:50.911Z,15.50
2018-05-11T22:35:18.115Z,15.50
2018-05-11T22:37:44.519Z,15.50
2018-05-11T22:40:10.918Z,15.40
2018-05-11T22:42:38.039Z,15.30
2018-05-11T22:45:04.431Z,15.20
2018-05-11T22:47:30.807Z,15.30
2018-05-11T22:49:57.193Z,15.40
2018-05-11T22:52:23.578Z,15.40
2018-05-11T22:54:49.991Z,15.30
2018-05-11T22:57:16.374Z,15.20
2018-05-11T22:59:43.508Z,15.30
2018-05-11T23:02:09.895Z,15.30
2018-05-11T23:04:36.283Z,15.30
2018-05-11T23:07:03.427Z,15.10
2018-05-11T23:09:29.865Z,15.10
2018-05-11T23:11:57.000Z,15.20
2018-05-11T23:14:23.476Z,15.10
2018-05-11T23:16:49.892Z,15.30
2018-05-11T23:19:17.036Z,15.30
2018-05-11T23:21:44.204Z,15.20
2018-05-11T23:24:10.605Z,15.10
2018-05-11T23:26:38.504Z,15.10
2018-05-11T23:29:04.938Z,15.10
2018-05-11T23:31:31.366Z,15.00
2018-05-11T23:33:58.502Z,15.00
2018-05-11T23:36:25.714Z,15.00
2018-05-11T23:38:52.118Z,14.90
2018-05-11T23:41:18.537Z,14.90
2018-05-11T23:43:44.945Z,15.00
2018-05-11T23:46:11.334Z,15.00
2018-05-11T23:48:37.738Z,14.90
2018-05-11T23:51:04.138Z,14.80
2018-05-11T23:53:31.293Z,14.90
2018-05-11T23:55:58.486Z,14.80
2018-05-11T23:58:24.905Z,14.80
